Flight Track Log - Related Links

Times and Time Zones

All times are in EDT time to prevent confusion due to time zone crossing. See the DAL1349 flight status page for this flight to view local times or setup timezone preferences in your user account.

Time Position Orientation Groundspeed Altitude Reporting Facility
EDT Latitude Longitude Course Direction KTS MPH feet Rate Location/Type
Tue 07:11:38 AM 38.3456 -81.6225 207° Southwest 156 180 3,000  Level Indianapolis Center
Tue 07:12:39 AM 38.2892 -81.6536 203° Southwest 221 254 5,900 3,541 Climbing Indianapolis Center
Tue 07:13:00 AM 38.0771 -81.7531 202° Southwest  Level FlightAware Approximate
Tue 07:13:40 AM 38.2058 -81.7025 205° Southwest 272 313 10,200  Level Indianapolis Center
Tue 07:14:00 AM 37.9776 -81.8051 204° Southwest  Level FlightAware Approximate
Tue 07:14:41 AM 38.1236 -81.7500 204° Southwest 320 368 12,800  Level Indianapolis Center
Tue 07:15:00 AM 37.8790 -81.8598 204° Southwest  Level FlightAware Approximate
Tue 07:15:43 AM 38.0350 -81.8008 204° Southwest 345 397 16,400  Level Indianapolis Center
Tue 07:16:00 AM 37.7827 -81.9208 207° Southwest  Level FlightAware Approximate
Tue 07:16:44 AM 37.9444 -81.8547 205° Southwest 356 410 19,200  Level Indianapolis Center
Tue 07:17:00 AM 37.6867 -81.9824 207° Southwest  Level FlightAware Approximate
Tue 07:17:45 AM 37.8481 -81.9092 204° Southwest 374 430 21,700  Level Indianapolis Center
Tue 07:18:46 AM 37.7444 -81.9694 205° Southwest 388 447 24,000 2,146 Climbing Indianapolis Center
Tue 07:19:48 AM 37.6389 -82.0292 204° Southwest 409 471 26,100 1,854 Climbing Indianapolis Center
Tue 07:20:49 AM 37.5306 -82.0894 204° Southwest 422 486 27,800 1,574 Climbing Indianapolis Center
Tue 07:21:50 AM 37.4194 -82.1531 204° Southwest 435 501 29,300 1,426 Climbing Indianapolis Center
Tue 07:22:51 AM 37.3036 -82.2172 204° Southwest 450 518 30,700 1,561 Climbing Indianapolis Center
Tue 07:23:53 AM 37.1881 -82.2833 205° Southwest 453 521 32,500 1,707 Climbing Indianapolis Center
Tue 07:24:54 AM 37.0717 -82.3475 204° Southwest 453 521 34,200 1,623 Climbing Indianapolis Center
Tue 07:25:55 AM 36.9572 -82.4111 204° Southwest 448 516 35,800 1,475 Climbing Indianapolis Center
Tue 07:26:56 AM 36.8450 -82.4742 204° Southwest 441 507 37,200 1,073 Climbing Indianapolis Center
Tue 07:27:58 AM 36.7144 -82.5458 204° Southwest 434 499 38,000 390 Climbing Indianapolis Center
Tue 07:28:59 AM 36.6053 -82.6061 204° Southwest 425 489 38,000  Level Indianapolis Center
Tue 07:30:00 AM 36.4944 -82.6672 204° Southwest 430 495 38,000 -48 Level Indianapolis Center
Tue 07:31:05 AM 36.3828 -82.7286 204° Southwest 440 506 37,900 -528 Descending Atlanta Center
Tue 07:32:05 AM 36.2708 -82.7897 204° Southwest 440 506 36,900 -950 Descending Atlanta Center
Tue 07:33:05 AM 36.1528 -82.8558 204° Southwest 440 506 36,000 -950 Descending Atlanta Center
Tue 07:34:05 AM 36.0406 -82.9167 204° Southwest 440 506 35,000 -500 Descending Atlanta Center
Tue 07:35:05 AM 35.9286 -82.9769 204° Southwest 440 506 35,000  Level Atlanta Center
Tue 07:36:05 AM 35.8183 -83.0350 203° Southwest 440 506 35,000  Level Atlanta Center
Tue 07:37:05 AM 35.7019 -83.0747 195° South 440 506 35,000  Level Atlanta Center
Tue 07:38:05 AM 35.5875 -83.1297 201° Southwest 440 506 35,000 -700 Level Atlanta Center
Tue 07:39:05 AM 35.4733 -83.1844 201° Southwest 445 512 33,600 -1,500 Descending Atlanta Center
Tue 07:40:05 AM 35.3608 -83.2367 201° Southwest 445 512 32,000 -1,550 Descending Atlanta Center
Tue 07:41:05 AM 35.2486 -83.2936 203° Southwest 439 505 30,500 -1,400 Descending Atlanta Center
Tue 07:42:05 AM 35.1447 -83.3453 202° Southwest 447 514 29,200 -1,400 Descending Atlanta Center
Tue 07:43:05 AM 35.0239 -83.4022 201° Southwest 453 521 27,700 -1,550 Descending Atlanta Center
Tue 07:44:05 AM 34.9114 -83.4586 202° Southwest 453 521 26,100 -1,600 Descending Atlanta Center
Tue 07:45:05 AM 34.8011 -83.5075 200° South 447 514 24,500 -1,600 Descending Atlanta Center
Tue 07:46:05 AM 34.6908 -83.5614 202° Southwest 433 498 22,900 -1,750 Descending Atlanta Center
Tue 07:47:05 AM 34.5742 -83.6150 201° Southwest 425 489 21,000 -1,700 Descending Atlanta Center
Tue 07:48:05 AM 34.4719 -83.6658 202° Southwest 413 475 19,500 -1,500 Descending Atlanta Center
Tue 07:49:05 AM 34.3761 -83.7117 202° Southwest 393 452 18,000 -1,300 Descending Atlanta Center
Tue 07:50:05 AM 34.2906 -83.7497 200° South 371 427 16,900 -1,150 Descending Atlanta Center
Tue 07:51:05 AM 34.2053 -83.7903 201° Southwest 340 391 15,700 -1,200 Descending Atlanta Center
Tue 07:52:05 AM 34.1258 -83.8306 203° Southwest 316 364 14,500 -850 Descending Atlanta Center
Tue 07:53:05 AM 34.0550 -83.8783 209° Southwest 311 358 14,000 -699 Descending Atlanta Center
Tue 07:53:48 AM 34.0167 -83.9167 220° Southwest 297 342 13,300 -990 Descending Atlanta TRACON
Tue 07:54:42 AM 33.9667 -83.9833 228° Southwest 292 336 12,400 -684 Descending Atlanta TRACON
Tue 07:55:42 AM 33.9000 -84.0500 220° Southwest 286 329 12,000 -200 Descending Atlanta TRACON
Tue 07:56:42 AM 33.8500 -84.1333 234° Southwest 287 330 12,000  Level Atlanta TRACON
Tue 07:57:30 AM 33.8167 -84.2000 239° Southwest 286 329 12,000  Level Atlanta TRACON
Tue 07:58:30 AM 33.7667 -84.2667 228° Southwest 285 328 12,000 -200 Level Atlanta TRACON
Tue 07:59:30 AM 33.7333 -84.3500 244° Southwest 287 330 11,600 -1,100 Descending Atlanta TRACON
Tue 08:00:30 AM 33.7333 -84.4500 270° West 288 331 9,800 -1,895 Descending Atlanta TRACON
Tue 08:01:24 AM 33.7333 -84.5333 270° West 281 323 8,000 -1,737 Descending Atlanta TRACON
Tue 08:02:24 AM 33.7333 -84.6333 270° West 268 308 6,500 -1,450 Descending Atlanta TRACON
Tue 08:03:24 AM 33.7333 -84.7167 270° West 267 307 5,100 -789 Descending Atlanta TRACON
Tue 08:04:18 AM 33.7333 -84.7833 270° West 224 258 5,000 -53 Descending Atlanta TRACON
Tue 08:05:18 AM 33.7333 -84.8500 270° West 193 222 5,000  Level Atlanta TRACON
Tue 08:06:12 AM 33.7000 -84.8667 203° Southwest 208 239 5,000  Level Atlanta TRACON
Tue 08:07:12 AM 33.6667 -84.8167 129° Southeast 194 223 5,000  Level Atlanta TRACON
Tue 08:08:12 AM 33.6500 -84.7500 107° East 190 219 5,000  Level Atlanta TRACON
Tue 08:09:06 AM 33.6500 -84.7000 90° East 189 217 5,000 -421 Level Atlanta TRACON
Tue 08:10:06 AM 33.6500 -84.6333 90° East 190 219 4,200 -895 Descending Atlanta TRACON
Tue 08:11:00 AM 33.6500 -84.5833 90° East 177 204 3,300 -947 Descending Atlanta TRACON
Tue 08:12:00 AM 33.6500 -84.5167 90° East 155 178 2,400 -900 Descending Atlanta TRACON

Login

Don't have an account? Register now (free) for customized features, flight alerts, and more!